Asheboro, North Carolina
Current Conditions -  °F | °C
As of 2:35 AM on Monday 22 Dec 2014 (Local Time) from KHBI Reporting Station
Moderate Rain Moderate Rain  
Wind Chill: 33°   Ceiling: 3200
Heat Index: 38°   Visibility: 3mi
Dew Point: 37°   Wind: 7mph
Humidity: 96%   Direction: 10°N
Pressure: 30.18"   Gusts: NA
Location:  35.71°N, 79.81°W
Report Text: KHBI 220735Z AUTO 01006KT 3SM RA SCT025 OVC032 04/03 A3018 RMK AO2 P0003 T00360030
Loading
Personal Weather Stations






























Interactive Weather Map New forecast layout! Learn more

10-Day Weather Forecast

Advertisements
Track Severe Weather on mobile